Time;durP1;ratioP1;P1;durP2;ratioP2;P2;SDS_P1;SDS_P2;PMS_P1;PMS_P2;Temp;Humidity;BMP_temperature;BMP_pressure;BME280_temperature;BME280_humidity;BME280_pressure;Samples;Min_cycle;Max_cycle;Signal;HPM_P1;HPM_P2
2020/12/27 00:00:50;;;;;;;2.35;1.40;;;15.20;56.00;;;;;;4901817;29;20491;-75
2020/12/27 00:03:16;;;;;;;2.10;1.27;;;15.20;55.90;;;;;;4902065;29;20040;-77
2020/12/27 00:05:44;;;;;;;2.17;1.30;;;15.20;55.90;;;;;;4902327;29;20056;-75
2020/12/27 00:08:10;;;;;;;1.98;1.67;;;15.10;56.00;;;;;;4901561;29;20056;-75
2020/12/27 00:10:36;;;;;;;2.22;1.60;;;15.20;56.10;;;;;;4901471;29;20056;-76
2020/12/27 00:13:02;;;;;;;2.20;1.50;;;15.20;56.10;;;;;;4900980;29;20040;-75
2020/12/27 00:15:28;;;;;;;3.53;1.98;;;15.20;56.00;;;;;;4901938;29;20457;-75
2020/12/27 00:17:54;;;;;;;2.72;1.50;;;15.20;56.00;;;;;;4901875;29;20127;-74
2020/12/27 00:20:20;;;;;;;2.03;1.70;;;15.20;56.00;;;;;;4901787;29;20491;-75
2020/12/27 00:22:46;;;;;;;3.30;1.98;;;15.20;56.00;;;;;;4900521;29;20095;-74
2020/12/27 00:25:12;;;;;;;2.38;2.00;;;15.20;56.00;;;;;;4901654;29;20106;-75
2020/12/27 00:27:38;;;;;;;3.08;1.92;;;15.20;56.00;;;;;;4901751;29;20048;-75
2020/12/27 00:30:04;;;;;;;2.22;2.00;;;15.20;56.00;;;;;;4901303;29;20048;-74
2020/12/27 00:32:30;;;;;;;2.38;1.95;;;15.20;56.00;;;;;;4900935;29;20056;-75
2020/12/27 00:34:56;;;;;;;2.40;1.58;;;15.20;56.00;;;;;;4900777;29;20452;-75
2020/12/27 00:37:22;;;;;;;2.05;1.88;;;15.10;55.90;;;;;;4901159;29;20059;-74
2020/12/27 00:39:50;;;;;;;2.65;1.90;;;15.10;55.90;;;;;;4901435;29;20048;-76
2020/12/27 00:42:15;;;;;;;2.63;1.90;;;15.10;55.90;;;;;;4900620;29;20056;-74
2020/12/27 00:44:41;;;;;;;2.97;2.20;;;15.10;56.00;;;;;;4901765;29;20052;-76
2020/12/27 00:47:07;;;;;;;2.50;2.20;;;15.10;56.00;;;;;;4901128;29;20098;-76
2020/12/27 00:49:34;;;;;;;1.83;1.58;;;15.10;56.00;;;;;;4900662;29;20063;-75
2020/12/27 00:51:59;;;;;;;2.92;2.10;;;15.10;56.00;;;;;;4900792;29;20050;-74
2020/12/27 00:54:25;;;;;;;2.53;2.08;;;15.10;55.90;;;;;;4901070;29;20048;-76
2020/12/27 00:56:51;;;;;;;2.70;2.28;;;15.10;55.90;;;;;;4900951;29;20056;-75
2020/12/27 00:59:18;;;;;;;2.10;1.90;;;15.00;55.80;;;;;;4900972;29;20059;-76
2020/12/27 01:01:44;;;;;;;2.45;1.77;;;15.00;55.80;;;;;;4900563;29;20052;-76
2020/12/27 01:04:10;;;;;;;2.53;2.20;;;15.00;55.80;;;;;;4900633;29;20445;-76
2020/12/27 01:06:38;;;;;;;2.80;2.25;;;15.00;55.70;;;;;;4900520;29;20056;-77
2020/12/27 01:09:05;;;;;;;2.78;2.17;;;15.00;55.80;;;;;;4900803;29;20127;-76
2020/12/27 01:11:31;;;;;;;2.50;2.17;;;15.00;55.90;;;;;;4900625;29;20045;-75
2020/12/27 01:13:57;;;;;;;4.30;2.50;;;15.00;55.90;;;;;;4900700;29;20058;-77
2020/12/27 01:16:23;;;;;;;2.65;2.45;;;15.00;56.00;;;;;;4900490;29;20371;-74
2020/12/27 01:18:50;;;;;;;2.65;2.13;;;15.00;55.90;;;;;;4900663;29;20052;-76
2020/12/27 01:21:27;;;;;;;2.88;2.30;;;15.00;55.90;;;;;;4900347;29;20049;-75
2020/12/27 01:23:53;;;;;;;3.88;2.47;;;15.00;55.80;;;;;;4898495;29;20362;-76
2020/12/27 01:26:32;;;;;;;2.22;2.00;;;15.00;55.90;;;;;;4900494;29;20413;-76
2020/12/27 01:28:59;;;;;;;5.38;2.72;;;15.00;55.80;;;;;;4900551;29;20443;-74
2020/12/27 01:31:26;;;;;;;3.05;2.50;;;15.00;55.90;;;;;;4900142;29;20071;-75
2020/12/27 01:33:52;;;;;;;2.95;2.13;;;15.00;55.90;;;;;;4900805;29;20401;-75
2020/12/27 01:36:29;;;;;;;3.33;2.80;;;15.00;55.90;;;;;;4899552;29;20062;-77
2020/12/27 01:38:59;;;;;;;3.70;2.85;;;15.00;55.80;;;;;;4900265;29;20055;-76
2020/12/27 01:41:25;;;;;;;2.72;2.50;;;15.00;55.80;;;;;;4900136;29;20052;-76
2020/12/27 01:44:22;;;;;;;3.08;2.80;;;14.90;55.70;;;;;;4899784;29;20044;-75
2020/12/27 01:46:47;;;;;;;3.03;2.60;;;15.00;55.70;;;;;;4881679;29;20532;-75
2020/12/27 01:49:16;;;;;;;3.10;2.42;;;14.90;55.70;;;;;;4881543;29;20049;-76
2020/12/27 01:51:42;;;;;;;3.20;2.70;;;14.90;55.70;;;;;;4891384;29;20056;-76
2020/12/27 01:54:08;;;;;;;3.35;2.80;;;14.90;55.70;;;;;;4900523;29;20044;-76
2020/12/27 01:56:42;;;;;;;3.63;2.75;;;14.90;55.70;;;;;;4899626;29;20076;-76
2020/12/27 01:59:12;;;;;;;4.00;3.00;;;14.90;55.70;;;;;;4899668;29;20056;-75
2020/12/27 02:01:38;;;;;;;3.30;2.70;;;14.90;55.80;;;;;;4899977;29;20044;-76
2020/12/27 02:04:05;;;;;;;3.40;3.08;;;14.90;55.80;;;;;;4900222;29;20551;-75
2020/12/27 02:06:31;;;;;;;2.75;2.45;;;14.90;55.70;;;;;;4899059;29;20037;-76
2020/12/27 02:08:58;;;;;;;3.65;2.40;;;14.90;55.70;;;;;;4899289;29;20456;-76
2020/12/27 02:11:25;;;;;;;3.17;2.35;;;14.90;55.70;;;;;;4900205;29;20128;-75
2020/12/27 02:13:52;;;;;;;3.60;2.60;;;15.00;55.70;;;;;;4899127;29;20085;-75
2020/12/27 02:16:21;;;;;;;2.65;1.98;;;14.90;55.70;;;;;;4899827;29;20086;-76
2020/12/27 02:18:53;;;;;;;2.63;2.42;;;14.90;55.70;;;;;;4899998;29;20127;-76
2020/12/27 02:21:19;;;;;;;2.47;2.08;;;15.00;55.70;;;;;;4899327;29;20057;-77
2020/12/27 02:23:46;;;;;;;2.60;2.40;;;14.90;55.60;;;;;;4899377;29;20472;-75
2020/12/27 02:26:12;;;;;;;2.67;2.42;;;14.90;55.60;;;;;;4899703;29;20052;-76
2020/12/27 02:28:38;;;;;;;3.10;2.28;;;14.90;55.60;;;;;;4899794;29;20052;-75
2020/12/27 02:31:04;;;;;;;2.42;2.15;;;14.90;55.60;;;;;;4899679;29;20076;-74
2020/12/27 02:33:30;;;;;;;2.70;2.30;;;14.90;55.70;;;;;;4899932;29;20150;-75
2020/12/27 02:35:56;;;;;;;3.83;2.20;;;14.90;55.60;;;;;;4898967;29;20048;-75
2020/12/27 02:38:22;;;;;;;2.47;2.03;;;14.90;55.70;;;;;;4899647;29;20056;-76
2020/12/27 02:40:48;;;;;;;2.63;2.38;;;14.90;55.60;;;;;;4899493;29;20364;-78
2020/12/27 02:43:18;;;;;;;2.65;2.10;;;14.90;55.60;;;;;;4899566;29;20077;-74
2020/12/27 02:45:45;;;;;;;1.77;1.58;;;14.90;55.60;;;;;;4899513;29;20067;-73
2020/12/27 02:48:11;;;;;;;3.53;2.08;;;14.90;55.70;;;;;;4899291;29;20368;-74
2020/12/27 02:50:37;;;;;;;2.28;2.05;;;14.90;55.60;;;;;;4900585;29;20036;-75
2020/12/27 02:53:04;;;;;;;2.35;2.05;;;14.90;55.60;;;;;;4902999;29;20128;-76
2020/12/27 02:55:32;;;;;;;1.98;1.60;;;14.90;55.60;;;;;;4902508;29;20527;-76
2020/12/27 02:57:58;;;;;;;2.78;2.30;;;14.90;55.60;;;;;;4902864;29;20049;-76
2020/12/27 03:00:25;;;;;;;2.80;1.95;;;14.90;55.50;;;;;;4903039;29;20056;-75
2020/12/27 03:02:50;;;;;;;2.30;2.10;;;14.90;55.50;;;;;;4902844;29;20052;-76
2020/12/27 03:05:16;;;;;;;2.72;2.22;;;14.90;55.50;;;;;;4902760;29;20061;-74
2020/12/27 03:07:42;;;;;;;2.30;1.70;;;14.90;55.50;;;;;;4918085;29;20051;-76
2020/12/27 03:10:08;;;;;;;2.20;1.70;;;14.90;55.50;;;;;;4902887;29;20060;-74
2020/12/27 03:12:34;;;;;;;2.95;2.47;;;14.90;55.50;;;;;;4902615;29;20056;-76
2020/12/27 03:14:59;;;;;;;2.00;1.70;;;14.90;56.10;;;;;;4902806;29;20048;-75
2020/12/27 03:17:25;;;;;;;3.35;2.13;;;14.90;55.50;;;;;;4902038;29;20052;-74
2020/12/27 03:19:51;;;;;;;2.95;1.73;;;14.90;56.10;;;;;;4901839;29;20558;-73
2020/12/27 03:22:17;;;;;;;2.13;1.75;;;14.90;55.40;;;;;;4902521;29;20119;-77
2020/12/27 03:24:42;;;;;;;3.30;1.92;;;14.90;55.40;;;;;;4901938;29;20055;-75
2020/12/27 03:27:08;;;;;;;2.30;2.10;;;14.90;55.40;;;;;;4902663;29;20472;-74
2020/12/27 03:29:34;;;;;;;3.95;2.40;;;14.90;55.50;;;;;;4902713;29;20048;-75
2020/12/27 03:32:00;;;;;;;2.53;1.80;;;14.90;55.50;;;;;;4901390;29;20112;-75
2020/12/27 03:34:26;;;;;;;2.15;1.88;;;14.90;55.50;;;;;;4902092;29;20139;-73
2020/12/27 03:36:51;;;;;;;2.53;1.95;;;14.90;55.40;;;;;;4902291;29;20049;-73
2020/12/27 03:39:17;;;;;;;2.08;1.75;;;14.90;55.50;;;;;;4902173;29;20052;-78
2020/12/27 03:41:43;;;;;;;2.72;2.15;;;14.90;55.50;;;;;;4901835;29;20454;-75
2020/12/27 03:44:10;;;;;;;2.10;1.83;;;14.90;55.50;;;;;;4902239;29;20071;-77
2020/12/27 03:46:36;;;;;;;3.70;2.67;;;14.90;55.40;;;;;;4902434;29;20496;-75
2020/12/27 03:49:02;;;;;;;2.88;2.00;;;14.90;55.50;;;;;;4902066;29;20044;-73
2020/12/27 03:51:27;;;;;;;2.63;2.10;;;14.90;55.40;;;;;;4901868;29;20045;-75
2020/12/27 03:53:53;;;;;;;2.60;1.90;;;14.90;55.40;;;;;;4902058;29;20056;-75
2020/12/27 03:56:23;;;;;;;2.55;1.90;;;14.90;55.40;;;;;;4901780;29;20048;-76
2020/12/27 03:58:49;;;;;;;3.38;2.35;;;14.90;55.40;;;;;;4916643;29;20060;-77
2020/12/27 04:01:15;;;;;;;2.92;1.90;;;14.90;55.50;;;;;;4900806;29;20060;-77
2020/12/27 04:03:41;;;;;;;2.97;1.60;;;14.90;55.50;;;;;;4901754;29;20072;-73
2020/12/27 04:06:07;;;;;;;2.28;1.60;;;14.90;55.40;;;;;;4901789;29;20044;-75
2020/12/27 04:08:33;;;;;;;3.45;1.95;;;14.90;55.40;;;;;;4902004;29;20360;-74
2020/12/27 04:10:59;;;;;;;2.88;1.70;;;14.90;55.40;;;;;;4901313;29;20052;-75
2020/12/27 04:13:25;;;;;;;3.15;1.92;;;14.90;55.40;;;;;;4901797;29;20048;-75
2020/12/27 04:15:50;;;;;;;2.55;1.60;;;14.90;55.40;;;;;;4901475;29;20103;-74
2020/12/27 04:18:16;;;;;;;2.53;1.40;;;14.90;55.40;;;;;;4901439;29;20048;-75
2020/12/27 04:20:43;;;;;;;2.80;1.73;;;14.90;55.30;;;;;;4901532;29;20048;-74
2020/12/27 04:23:09;;;;;;;2.78;1.42;;;14.90;55.30;;;;;;4902306;29;20072;-75
2020/12/27 04:25:35;;;;;;;2.15;1.42;;;14.90;55.30;;;;;;4901133;29;20104;-75
2020/12/27 04:28:01;;;;;;;2.00;1.50;;;14.90;55.30;;;;;;4901787;29;20456;-76
2020/12/27 04:30:27;;;;;;;1.95;1.52;;;14.90;55.30;;;;;;4901269;29;20389;-74
2020/12/27 04:32:52;;;;;;;1.88;1.45;;;14.90;55.30;;;;;;4900912;29;20071;-74
2020/12/27 04:35:18;;;;;;;1.50;1.33;;;14.90;55.20;;;;;;4900684;29;20465;-74
2020/12/27 04:37:44;;;;;;;1.48;1.17;;;14.90;55.30;;;;;;4901310;29;20368;-73
2020/12/27 04:40:10;;;;;;;1.92;1.20;;;14.90;55.20;;;;;;4901238;29;20170;-74
2020/12/27 04:42:36;;;;;;;2.30;1.35;;;14.90;55.40;;;;;;4901079;29;20051;-75
2020/12/27 04:45:03;;;;;;;1.80;1.30;;;14.90;55.20;;;;;;4901551;29;20088;-75
2020/12/27 04:47:29;;;;;;;2.25;1.30;;;14.90;55.20;;;;;;4900881;29;20064;-75
2020/12/27 04:49:56;;;;;;;1.90;1.30;;;14.80;55.10;;;;;;4900276;29;20052;-76
2020/12/27 04:52:22;;;;;;;2.28;1.38;;;14.90;55.20;;;;;;4901036;29;20049;-74
2020/12/27 04:54:49;;;;;;;3.25;1.30;;;14.90;55.40;;;;;;4901263;29;20123;-75
2020/12/27 04:57:17;;;;;;;3.35;1.13;;;14.90;55.50;;;;;;4900582;29;20388;-75
2020/12/27 04:59:46;;;;;;;2.72;0.70;;;15.00;55.70;;;;;;4900112;29;20057;-78
2020/12/27 05:02:18;;;;;;;2.40;0.70;;;14.90;55.60;;;;;;4913553;29;20480;-80
2020/12/27 05:04:47;;;;;;;3.53;0.82;;;15.10;55.70;;;;;;4900130;29;20083;-79
2020/12/27 05:07:23;;;;;;;2.97;0.65;;;15.20;55.70;;;;;;4915449;29;20033;-81
2020/12/27 05:09:51;;;;;;;1.20;0.57;;;15.30;55.90;;;;;;4899362;29;20127;-80
2020/12/27 05:12:19;;;;;;;4.40;0.95;;;15.40;56.20;;;;;;4914630;29;20080;-81
2020/12/27 05:14:46;;;;;;;3.00;0.80;;;15.40;56.20;;;;;;4883155;29;20060;-79
2020/12/27 05:17:14;;;;;;;1.30;0.60;;;15.60;56.40;;;;;;4900024;29;20057;-72
2020/12/27 05:19:54;;;;;;;3.47;0.60;;;15.60;56.30;;;;;;4900544;29;20080;-81
2020/12/27 05:23:02;;;;;;;3.63;0.70;;;15.80;56.50;;;;;;4899047;29;20052;-81
2020/12/27 05:26:06;;;;;;;9.57;0.90;;;15.90;56.50;;;;;;4913640;29;20392;-81
2020/12/27 05:29:01;;;;;;;3.33;0.70;;;16.00;56.30;;;;;;4886163;29;20060;-82
2020/12/27 05:31:40;;;;;;;1.83;0.47;;;16.10;56.00;;;;;;4899023;29;20040;-81
2020/12/27 05:34:09;;;;;;;5.50;0.40;;;16.10;55.80;;;;;;4914777;29;20032;-80
2020/12/27 05:36:35;;;;;;;2.70;0.40;;;16.20;55.60;;;;;;4899414;29;20048;-80
2020/12/27 05:39:11;;;;;;;4.25;0.55;;;16.30;55.50;;;;;;4883873;29;20072;-79
2020/12/27 05:41:40;;;;;;;1.70;0.45;;;16.30;55.40;;;;;;4883739;29;20136;-81
2020/12/27 05:44:07;;;;;;;3.15;0.55;;;16.30;55.30;;;;;;4915050;29;20049;-82
2020/12/27 05:46:34;;;;;;;3.15;0.40;;;16.40;55.20;;;;;;4915556;29;20127;-82
2020/12/27 05:49:00;;;;;;;2.78;0.60;;;16.50;55.10;;;;;;4899969;29;20460;-81
2020/12/27 05:51:26;;;;;;;3.15;0.43;;;16.50;55.10;;;;;;4914233;29;20092;-79
2020/12/27 05:53:53;;;;;;;3.75;0.40;;;16.50;55.00;;;;;;4899257;29;20422;-79
2020/12/27 05:56:21;;;;;;;1.85;0.32;;;16.60;54.90;;;;;;4899246;29;20449;-79
2020/12/27 05:58:48;;;;;;;3.28;0.30;;;16.60;54.90;;;;;;4898262;29;20052;-80
2020/12/27 06:01:24;;;;;;;1.52;0.40;;;16.70;54.80;;;;;;4898181;29;20516;-81
2020/12/27 06:04:02;;;;;;;2.58;0.30;;;16.70;54.70;;;;;;4898627;29;20059;-79
2020/12/27 06:06:28;;;;;;;2.58;0.40;;;16.80;54.60;;;;;;4898350;29;20068;-80
2020/12/27 06:09:03;;;;;;;2.05;0.30;;;16.80;54.50;;;;;;4882077;29;20460;-80
2020/12/27 06:11:52;;;;;;;1.85;0.20;;;16.90;54.50;;;;;;4898598;29;20052;-80
2020/12/27 06:15:06;;;;;;;1.38;0.20;;;16.90;54.50;;;;;;4898223;29;20404;-81
2020/12/27 06:18:07;;;;;;;3.50;0.40;;;17.10;54.50;;;;;;4882753;29;20066;-82
2020/12/27 06:21:06;;;;;;;7.45;0.80;;;17.10;54.50;;;;;;4897130;29;20045;-81
2020/12/27 06:23:38;;;;;;;2.58;0.40;;;17.10;54.40;;;;;;4897186;29;20045;-81
2020/12/27 06:30:23;;;;;;;3.00;0.30;;;17.30;54.50;;;;;;4902262;29;20040;-81
2020/12/27 06:33:04;;;;;;;4.10;0.40;;;17.20;54.30;;;;;;4887547;29;20049;-82
2020/12/27 06:35:35;;;;;;;5.40;0.20;;;17.30;54.30;;;;;;4901896;29;20044;-81
2020/12/27 06:38:13;;;;;;;4.80;0.30;;;17.30;54.20;;;;;;4902888;29;20441;-82
2020/12/27 06:40:39;;;;;;;3.97;0.63;;;17.30;54.30;;;;;;4915774;29;20049;-81
2020/12/27 06:43:19;;;;;;;5.75;0.38;;;17.30;54.30;;;;;;4917920;29;20040;-80
2020/12/27 06:45:46;;;;;;;5.80;0.30;;;17.30;54.30;;;;;;4902233;29;20075;-82
2020/12/27 06:48:36;;;;;;;7.38;0.30;;;17.30;54.40;;;;;;4901933;29;20488;-85
2020/12/27 06:51:12;;;;;;;6.60;0.60;;;17.40;54.60;;;;;;4916820;29;20037;-85
2020/12/27 06:53:39;;;;;;;3.53;0.47;;;17.40;54.50;;;;;;4902145;29;20071;-82
2020/12/27 06:56:05;;;;;;;3.30;0.43;;;17.40;54.50;;;;;;4904035;29;20048;-85
2020/12/27 06:58:35;;;;;;;6.88;0.43;;;17.40;54.50;;;;;;4902369;29;20048;-85
2020/12/27 07:01:36;;;;;;;4.13;0.50;;;17.40;54.60;;;;;;4914492;29;20063;-83
2020/12/27 07:07:56;;;;;;;5.18;0.40;;;17.40;54.80;;;;;;4873044;29;20073;-84
2020/12/27 07:53:03;;;;;;;3.60;0.32;;;17.60;55.50;;;;;;5460417;23;20059;-81
2020/12/27 07:55:50;;;;;;;6.22;0.15;;;17.80;55.30;;;;;;4930408;29;20051;-81
2020/12/27 07:58:16;;;;;;;2.63;0.20;;;17.70;55.20;;;;;;4928367;29;20047;-78
2020/12/27 08:08:29;;;;;;;6.18;0.77;;;17.60;55.30;;;;;;4861868;29;20090;-85
2020/12/27 08:18:17;;;;;;;2.65;0.20;;;17.60;55.20;;;;;;4843854;29;20040;-78
2020/12/27 08:20:48;;;;;;;3.80;0.30;;;17.60;55.20;;;;;;4846622;29;20076;-79
2020/12/27 08:23:14;;;;;;;2.88;0.10;;;17.50;55.10;;;;;;4861247;29;20541;-78
2020/12/27 08:25:41;;;;;;;3.65;0.35;;;17.50;55.20;;;;;;4861654;29;20057;-78
2020/12/27 08:28:15;;;;;;;8.80;0.22;;;17.50;55.20;;;;;;4884264;29;20071;-80
2020/12/27 08:30:41;;;;;;;2.45;0.10;;;17.40;55.10;;;;;;4939756;29;20408;-78
2020/12/27 08:33:17;;;;;;;5.35;0.20;;;17.40;55.10;;;;;;4939120;29;20123;-78
2020/12/27 08:35:47;;;;;;;1.90;0.20;;;17.40;55.00;;;;;;4938775;29;20114;-79
2020/12/27 08:38:26;;;;;;;4.13;0.30;;;17.30;55.00;;;;;;4938466;29;20055;-77
2020/12/27 08:41:06;;;;;;;1.85;0.30;;;17.30;54.80;;;;;;4921737;29;20063;-78
2020/12/27 08:43:56;;;;;;;4.05;0.30;;;17.30;54.90;;;;;;4939592;29;20074;-77
2020/12/27 08:46:29;;;;;;;5.53;0.25;;;17.30;54.80;;;;;;4939376;29;20507;-79
2020/12/27 08:49:03;;;;;;;1.67;0.32;;;17.30;54.80;;;;;;4938608;29;20046;-79
2020/12/27 08:51:33;;;;;;;2.30;0.03;;;17.30;54.80;;;;;;4939704;29;20122;-79
2020/12/27 08:54:00;;;;;;;9.80;0.50;;;17.30;54.80;;;;;;4933065;29;20060;-80
2020/12/27 08:56:28;;;;;;;3.03;0.10;;;17.30;54.80;;;;;;4939163;29;20466;-78
2020/12/27 08:58:55;;;;;;;2.25;0.20;;;17.30;54.80;;;;;;4938958;29;20043;-77
2020/12/27 09:01:22;;;;;;;1.98;0.10;;;17.30;54.70;;;;;;4939067;29;20075;-78
2020/12/27 09:03:49;;;;;;;4.13;0.32;;;17.30;54.60;;;;;;4938152;29;20428;-79
2020/12/27 09:06:15;;;;;;;7.78;0.80;;;17.30;54.70;;;;;;4938114;29;20531;-78
2020/12/27 09:08:41;;;;;;;3.30;0.20;;;17.30;54.60;;;;;;4938219;29;20043;-78
2020/12/27 09:11:07;;;;;;;3.38;0.32;;;17.40;54.60;;;;;;4938463;29;20076;-77
2020/12/27 09:13:38;;;;;;;2.28;0.20;;;17.40;54.70;;;;;;4937762;29;20451;-80
2020/12/27 09:16:04;;;;;;;2.78;0.10;;;17.40;54.60;;;;;;4936848;29;20367;-79
2020/12/27 09:18:32;;;;;;;10.45;0.32;;;17.40;54.60;;;;;;4938036;29;20051;-77
2020/12/27 09:21:05;;;;;;;5.68;0.35;;;17.40;54.70;;;;;;4937445;29;20412;-76
2020/12/27 09:23:32;;;;;;;15.45;0.55;;;17.40;54.70;;;;;;4938042;29;20054;-74
2020/12/27 09:26:06;;;;;;;6.47;0.63;;;17.40;54.90;;;;;;4937931;29;20383;-76
2020/12/27 09:28:34;;;;;;;10.55;0.98;;;17.40;55.60;;;;;;4937627;29;20383;-75
2020/12/27 09:31:09;;;;;;;9.80;0.90;;;17.40;55.30;;;;;;4937482;29;20111;-75
2020/12/27 09:33:39;;;;;;;5.78;0.52;;;17.40;55.70;;;;;;4937722;29;20451;-74
2020/12/27 09:36:07;;;;;;;16.65;0.95;;;17.40;55.70;;;;;;4938056;29;20065;-75
2020/12/27 09:38:35;;;;;;;12.07;0.77;;;17.40;55.80;;;;;;4937788;29;20056;-74
2020/12/27 09:41:17;;;;;;;10.05;0.65;;;17.40;56.00;;;;;;4937874;29;20039;-76
2020/12/27 09:43:58;;;;;;;13.07;1.17;;;17.40;56.20;;;;;;4938058;29;20051;-76
2020/12/27 09:46:44;;;;;;;5.20;0.40;;;17.50;56.70;;;;;;4937994;29;20468;-75
2020/12/27 09:49:17;;;;;;;8.25;0.68;;;17.50;56.80;;;;;;4937838;29;20043;-74
2020/12/27 09:51:43;;;;;;;10.60;0.95;;;17.50;56.80;;;;;;4938643;29;20058;-75
2020/12/27 09:54:09;;;;;;;9.23;0.52;;;17.50;56.90;;;;;;4938735;29;20043;-74
2020/12/27 09:56:43;;;;;;;8.98;0.60;;;17.50;57.10;;;;;;4942544;29;20064;-74
2020/12/27 09:59:10;;;;;;;;;;;17.50;57.10;;;;;;4936033;29;20047;-76
2020/12/27 10:01:36;;;;;;;7.65;0.60;;;17.50;56.90;;;;;;4937186;29;19981;-75
2020/12/27 10:04:02;;;;;;;4.55;0.40;;;17.50;57.10;;;;;;4933296;29;20035;-78
2020/12/27 10:06:28;;;;;;;6.82;0.85;;;17.50;57.30;;;;;;4938417;29;20063;-75
2020/12/27 10:08:54;;;;;;;7.80;0.38;;;17.60;57.30;;;;;;4937578;29;20359;-78
2020/12/27 10:11:19;;;;;;;6.47;0.40;;;17.60;57.40;;;;;;4935849;29;20058;-75
2020/12/27 10:13:45;;;;;;;5.32;0.60;;;17.70;57.20;;;;;;4933555;29;20367;-76
2020/12/27 10:16:11;;;;;;;3.95;0.40;;;17.70;57.10;;;;;;4934787;29;20044;-75
2020/12/27 10:18:37;;;;;;;4.63;0.35;;;17.70;57.10;;;;;;4949467;29;20051;-75
2020/12/27 10:21:02;;;;;;;4.97;0.30;;;17.70;57.10;;;;;;4937117;29;20074;-76
2020/12/27 10:23:28;;;;;;;5.70;0.50;;;17.70;57.00;;;;;;4937370;29;20058;-75
2020/12/27 10:25:54;;;;;;;4.63;0.40;;;17.80;57.70;;;;;;4937519;29;20443;-82
2020/12/27 10:28:23;;;;;;;3.92;0.55;;;17.90;57.90;;;;;;4919692;29;20051;-75
2020/12/27 10:30:49;;;;;;;3.85;0.50;;;17.90;57.30;;;;;;4944368;29;20043;-76
2020/12/27 10:33:16;;;;;;;4.60;0.10;;;18.00;57.40;;;;;;4937543;29;20497;-75
2020/12/27 10:35:42;;;;;;;4.15;0.30;;;18.00;57.30;;;;;;4935779;29;20058;-75
2020/12/27 10:38:08;;;;;;;1.95;0.20;;;18.00;57.30;;;;;;4943487;29;20047;-76
2020/12/27 10:40:37;;;;;;;1.80;0.82;;;18.10;57.30;;;;;;4956546;29;20053;-76
2020/12/27 10:43:03;;;;;;;2.38;0.13;;;18.10;57.30;;;;;;4956859;29;20051;-76
2020/12/27 10:45:29;;;;;;;1.60;0.20;;;18.00;57.20;;;;;;4946653;29;20044;-76
2020/12/27 10:47:55;;;;;;;2.15;0.30;;;18.10;57.30;;;;;;4934686;29;20040;-75
2020/12/27 10:50:21;;;;;;;2.63;0.10;;;18.10;57.30;;;;;;4937053;29;20455;-75
2020/12/27 10:52:46;;;;;;;3.05;0.25;;;18.10;57.20;;;;;;4937088;29;20118;-76
2020/12/27 10:55:12;;;;;;;1.27;0.15;;;18.00;57.10;;;;;;4937298;29;20064;-74
2020/12/27 10:57:38;;;;;;;2.38;0.20;;;18.10;57.10;;;;;;4936896;29;20068;-76
2020/12/27 11:00:05;;;;;;;1.85;0.10;;;18.10;57.10;;;;;;4936582;29;20083;-75
2020/12/27 11:02:30;;;;;;;2.80;0.25;;;18.00;57.00;;;;;;4937487;29;20106;-75
2020/12/27 11:04:56;;;;;;;0.43;0.30;;;18.00;56.90;;;;;;4937048;29;20036;-75
2020/12/27 11:07:22;;;;;;;1.02;0.00;;;18.10;56.90;;;;;;4936975;29;20784;-77
2020/12/27 11:09:48;;;;;;;1.73;0.10;;;18.10;56.90;;;;;;4936823;29;20043;-75
2020/12/27 11:12:13;;;;;;;2.40;0.47;;;18.10;56.80;;;;;;4938558;29;20040;-75
2020/12/27 11:14:39;;;;;;;0.77;0.00;;;18.10;56.70;;;;;;4940391;29;20102;-75
2020/12/27 11:17:05;;;;;;;2.13;0.10;;;18.20;56.80;;;;;;4940402;29;20047;-74
2020/12/27 11:19:31;;;;;;;2.42;0.00;;;18.20;56.70;;;;;;4940346;29;20051;-76
2020/12/27 11:21:56;;;;;;;8.60;0.35;;;18.20;56.60;;;;;;4940612;29;20086;-79
2020/12/27 11:24:22;;;;;;;6.93;0.25;;;18.30;56.90;;;;;;4939705;29;20139;-73
2020/12/27 11:26:48;;;;;;;9.43;0.35;;;18.30;56.90;;;;;;4940378;29;20059;-74
2020/12/27 11:29:14;;;;;;;9.65;0.80;;;18.40;56.90;;;;;;4940070;29;20039;-75
2020/12/27 11:31:39;;;;;;;18.33;0.90;;;18.30;56.90;;;;;;4940312;29;20054;-74
2020/12/27 11:34:05;;;;;;;8.90;0.70;;;18.40;56.90;;;;;;4930009;29;20415;-73
2020/12/27 11:36:31;;;;;;;5.88;0.32;;;18.40;56.90;;;;;;4937504;29;20087;-75
2020/12/27 11:38:57;;;;;;;7.40;0.38;;;18.40;56.80;;;;;;4940121;29;20059;-73
2020/12/27 11:41:23;;;;;;;4.85;0.22;;;18.30;56.70;;;;;;4938178;29;20047;-73
2020/12/27 11:43:48;;;;;;;7.80;0.30;;;18.30;56.60;;;;;;4939981;29;20051;-74
2020/12/27 11:46:14;;;;;;;5.90;0.40;;;18.30;56.60;;;;;;4939644;29;20047;-73
2020/12/27 11:48:41;;;;;;;5.45;0.20;;;18.30;56.60;;;;;;4940260;29;20463;-73
2020/12/27 11:51:06;;;;;;;4.28;0.30;;;18.30;56.50;;;;;;4939902;29;20047;-74
2020/12/27 11:53:32;;;;;;;10.90;0.65;;;18.30;56.40;;;;;;4939666;29;20459;-74
2020/12/27 11:55:58;;;;;;;11.27;0.75;;;18.30;56.50;;;;;;4955143;29;20055;-74
2020/12/27 11:58:24;;;;;;;15.85;0.63;;;18.30;56.40;;;;;;4940596;29;20076;-74
2020/12/27 12:00:50;;;;;;;4.18;0.30;;;18.30;56.40;;;;;;4940238;29;20036;-73
2020/12/27 12:03:16;;;;;;;7.78;0.40;;;18.30;56.30;;;;;;4941632;29;20068;-73
2020/12/27 12:05:42;;;;;;;7.43;0.40;;;18.30;56.20;;;;;;4939595;29;20062;-73
2020/12/27 12:08:08;;;;;;;9.88;0.57;;;18.30;56.20;;;;;;4939084;29;20039;-72
2020/12/27 12:10:34;;;;;;;6.32;0.75;;;18.20;56.10;;;;;;4935413;29;20067;-76
2020/12/27 12:12:59;;;;;;;6.30;0.25;;;18.20;56.00;;;;;;4932553;29;20055;-74
2020/12/27 12:15:27;;;;;;;7.15;0.25;;;18.20;55.90;;;;;;4939542;29;20047;-75
2020/12/27 12:17:52;;;;;;;4.82;0.55;;;18.30;55.90;;;;;;4938972;29;20070;-75
2020/12/27 12:23:04;;;;;;;4.95;0.40;;;18.30;55.80;;;;;;4935959;29;20043;-73
2020/12/27 12:25:29;;;;;;;6.32;0.40;;;18.20;55.60;;;;;;4958684;29;20122;-74
2020/12/27 12:27:55;;;;;;;5.28;0.47;;;18.30;55.50;;;;;;4941382;29;20068;-75
2020/12/27 12:30:21;;;;;;;8.60;0.50;;;18.30;55.40;;;;;;4937902;29;20047;-73
2020/12/27 12:32:47;;;;;;;6.50;0.70;;;18.30;55.30;;;;;;4938999;29;20094;-73
2020/12/27 12:35:13;;;;;;;8.95;0.40;;;18.30;55.40;;;;;;4930368;29;20364;-73
2020/12/27 12:37:38;;;;;;;11.88;0.93;;;18.30;55.50;;;;;;4939710;29;20047;-74
2020/12/27 12:40:06;;;;;;;6.28;0.60;;;18.30;55.50;;;;;;4934843;29;20043;-75
2020/12/27 12:42:38;;;;;;;6.15;0.60;;;18.30;55.30;;;;;;4932609;29;20081;-75
2020/12/27 12:45:05;;;;;;;11.55;0.60;;;18.30;55.20;;;;;;4938407;29;20114;-73
2020/12/27 12:47:31;;;;;;;8.25;1.05;;;18.30;55.20;;;;;;4932253;29;20047;-78
2020/12/27 12:49:57;;;;;;;13.15;0.52;;;18.30;55.40;;;;;;4939335;29;20043;-78
2020/12/27 12:52:23;;;;;;;2.83;0.47;;;18.30;55.30;;;;;;4938854;29;20518;-74
2020/12/27 12:54:49;;;;;;;5.97;0.55;;;18.30;55.20;;;;;;4930183;29;20060;-76
2020/12/27 12:57:14;;;;;;;6.15;0.40;;;18.30;55.10;;;;;;4938612;29;20102;-75
2020/12/27 12:59:41;;;;;;;8.77;0.22;;;18.30;55.20;;;;;;4937564;29;20416;-75
2020/12/27 13:02:06;;;;;;;9.55;0.35;;;18.30;55.10;;;;;;4938679;29;20067;-74
2020/12/27 13:04:32;;;;;;;8.05;0.50;;;18.30;55.80;;;;;;4938556;29;20074;-74
2020/12/27 13:06:58;;;;;;;9.60;0.60;;;18.30;55.40;;;;;;4938852;29;20106;-75
2020/12/27 13:09:24;;;;;;;4.68;0.28;;;18.30;55.10;;;;;;4938561;29;20428;-77
2020/12/27 13:11:49;;;;;;;3.45;0.40;;;18.30;55.00;;;;;;4938736;29;20115;-76
2020/12/27 13:14:15;;;;;;;4.82;0.40;;;18.30;54.80;;;;;;4937933;29;20111;-77
2020/12/27 13:16:45;;;;;;;5.40;0.20;;;18.40;54.80;;;;;;4937972;29;20058;-77
2020/12/27 13:19:10;;;;;;;4.38;0.32;;;18.40;54.90;;;;;;4938604;29;20055;-77
2020/12/27 13:21:36;;;;;;;6.05;0.40;;;18.40;54.80;;;;;;4938362;29;20043;-78
2020/12/27 13:24:02;;;;;;;2.95;0.35;;;18.50;54.90;;;;;;4937340;29;20058;-72
2020/12/27 13:26:28;;;;;;;5.07;0.30;;;18.40;55.00;;;;;;4938039;29;20047;-75
2020/12/27 13:28:54;;;;;;;1.88;0.17;;;18.40;54.90;;;;;;4937632;29;20443;-76
2020/12/27 13:31:19;;;;;;;8.07;0.60;;;18.50;55.00;;;;;;4937745;29;20047;-75
2020/12/27 13:33:45;;;;;;;4.20;0.40;;;18.50;55.00;;;;;;4930261;29;20040;-78
2020/12/27 13:36:12;;;;;;;7.55;0.30;;;18.50;55.00;;;;;;4938044;29;20122;-77
2020/12/27 13:38:38;;;;;;;11.38;1.05;;;18.50;55.10;;;;;;4936910;29;20047;-74
2020/12/27 13:41:04;;;;;;;8.60;0.50;;;18.50;55.70;;;;;;4937679;29;20058;-75
2020/12/27 13:43:30;;;;;;;8.02;0.28;;;18.50;55.10;;;;;;4937145;29;20055;-76
2020/12/27 13:45:56;;;;;;;15.20;1.33;;;18.50;55.00;;;;;;4921165;29;20047;-78
2020/12/27 13:48:21;;;;;;;1.35;0.40;;;18.50;55.00;;;;;;4938154;29;20047;-77
2020/12/27 13:50:47;;;;;;;18.08;0.73;;;18.60;55.10;;;;;;4938020;29;20047;-77
2020/12/27 13:53:13;;;;;;;17.58;2.05;;;18.50;55.00;;;;;;4937884;29;20039;-77
2020/12/27 13:55:43;;;;;;;20.35;1.77;;;18.50;55.10;;;;;;4936562;29;20060;-77
2020/12/27 13:58:09;;;;;;;22.23;1.88;;;18.50;55.30;;;;;;4937992;29;20079;-76
2020/12/27 14:00:35;;;;;;;19.42;1.92;;;18.50;55.30;;;;;;4937193;29;20079;-73